Chang Sheng — V3PK — position and weather

sailwx.info

Track history (hours):
 
Tides and Currents Weather Stations Pressure Air Temp Water Temp Dewpoint Dewpoint Depression Visibility Wind Speed Wind Dir Waves Ship Positions

Chang Sheng

Last reported at 2016-Sep-19 09:31 UTC. Time now 2016-Oct-01 10:21 UTC.
Position N 34°38' E 134°60'.
Warning: this ship's position is 12 days out of date.

Length 86 m; draft 5.9 m.

Type: Cargo ship. MMSI: 312161000.

Date/timePositionNaut miles runAvg speedWind from/ knotsBaromVisibWave heightAir tempDewpointWater temp
2016-Sep-19 09:31N 34°38' E 134°60'11 5.6
2016-Sep-19 07:33N 34°27' E 135°03'8 7.7
2016-Sep-19 06:32N 34°19' E 135°00'234 6.5
2016-Sep-17 18:38N 34°51' E 139°42'46 7.3
2016-Sep-17 12:20N 35°15' E 140°30'16 9.1
2016-Sep-17 10:32N 35°28' E 140°42'10 9.4
2016-Sep-17 09:29N 35°35' E 140°50'16 7.7
2016-Sep-17 07:26N 35°51' E 140°49'9 3.8
2016-Sep-17 05:11N 35°56' E 140°40'0 0.0
2016-Sep-17 04:32N 35°56' E 140°40'0 0.0
2016-Sep-17 00:23N 35°55' E 140°40'0 0.0
2016-Sep-16 09:14N 35°55' E 140°40'0 0.0
2016-Sep-16 00:26N 35°55' E 140°40'0 0.0
2016-Sep-15 22:22N 35°56' E 140°40'0 0.0
2016-Sep-15 21:29N 35°55' E 140°40'0 0.0
2016-Sep-15 20:32N 35°55' E 140°40'0 0.0
2016-Sep-15 12:31N 35°55' E 140°40'0 0.0
2016-Sep-15 11:08N 35°55' E 140°40'0 0.0
2016-Sep-14 22:31N 35°55' E 140°40'0 0.0
2016-Sep-14 17:31N 35°56' E 140°40'0 0.0
2016-Sep-14 16:22N 35°56' E 140°40'0 0.0
2016-Sep-14 10:26N 35°55' E 140°40'0 0.0
2016-Sep-14 09:32N 35°55' E 140°40'0 0.0
2016-Sep-14 08:29N 35°55' E 140°40'8 0.8
2016-Sep-13 22:33N 35°56' E 140°50'1 0.7
2016-Sep-13 20:33N 35°55' E 140°52'14 7.1
2016-Sep-13 18:33N 35°41' E 140°55'9 6.9
2016-Sep-13 17:11N 35°34' E 140°48'4 7.1
2016-Sep-13 16:33N 35°30' E 140°45'44 8.8
2016-Sep-13 11:32N 34°58' E 140°08'18 9.2
2016-Sep-13 09:33N 34°52' E 139°47'19 9.6
2016-Sep-13 07:33N 35°11' E 139°46'1110.5
2016-Sep-13 06:33N 35°21' E 139°42'2010.0
2016-Sep-13 04:33N 35°36' E 139°59'4 2.1
2016-Sep-13 02:27N 35°41' E 139°59'0 0.0
2016-Sep-12 23:33N 35°41' E 139°59'0 0.0
2016-Sep-12 21:33N 35°41' E 139°59'0 0.0
2016-Sep-12 19:21N 35°41' E 139°59'0 0.0
2016-Sep-12 17:33N 35°41' E 139°59'0 0.0
2016-Sep-12 14:33N 35°41' E 139°59'0 0.0
2016-Sep-12 13:27N 35°41' E 139°59'0 0.0
2016-Sep-12 12:33N 35°41' E 139°59'0 0.0
2016-Sep-12 11:09N 35°41' E 139°59'0 0.0
2016-Sep-12 10:27N 35°41' E 139°59'0 0.0
2016-Sep-12 07:21N 35°41' E 139°59'0 0.0
2016-Sep-12 06:33N 35°41' E 139°59'0 0.0
2016-Sep-12 03:33N 35°41' E 139°59'0 0.0
2016-Sep-12 01:33N 35°41' E 139°59'0 0.0
2016-Sep-11 23:33N 35°41' E 139°59'0 0.0
2016-Sep-11 22:30N 35°41' E 139°59'2 2.2
2016-Sep-11 21:33N 35°38' E 139°59'3 2.7
2016-Sep-11 20:31N 35°36' E 139°58'0 0.0
2016-Sep-11 19:31N 35°36' E 139°58'0 0.0
2016-Sep-11 18:31N 35°36' E 139°58'0 0.0
2016-Sep-11 17:28N 35°36' E 139°58'0 0.0
2016-Sep-11 16:31N 35°36' E 139°58'0 0.0
2016-Sep-11 15:31N 35°36' E 139°58'0 0.0
2016-Sep-11 14:28N 35°36' E 139°58'0 0.0
2016-Sep-11 13:31N 35°36' E 139°58'0 0.0
2016-Sep-11 12:31N 35°36' E 139°58'0 0.0
2016-Sep-11 11:31N 35°36' E 139°58'0 0.0
2016-Sep-11 10:28N 35°36' E 139°58'0 0.0
2016-Sep-11 08:19N 35°36' E 139°58'0 0.1
2016-Sep-11 07:31N 35°36' E 139°58'0 0.0
2016-Sep-11 03:31N 35°36' E 139°58'0 0.1
2016-Sep-11 02:28N 35°36' E 139°58'0 0.0
2016-Sep-11 01:07N 35°36' E 139°58'0 0.0
2016-Sep-11 00:31N 35°36' E 139°58'0 0.0
2016-Sep-10 23:29N 35°36' E 139°58'0 0.0
2016-Sep-10 21:32N 35°36' E 139°58'0 0.0
2016-Sep-10 20:29N 35°36' E 139°58'0 0.0
2016-Sep-10 19:23N 35°36' E 139°58'0 0.0
2016-Sep-10 18:29N 35°36' E 139°58'0 0.0
2016-Sep-10 17:23N 35°36' E 139°58'0 0.0
2016-Sep-10 16:32N 35°36' E 139°58'0 0.0
2016-Sep-10 15:32N 35°36' E 139°58'0 0.0
2016-Sep-10 14:29N 35°36' E 139°58'0 0.0
2016-Sep-10 13:29N 35°36' E 139°58'0 0.0
2016-Sep-10 12:29N 35°36' E 139°58'0 0.0
2016-Sep-10 11:20N 35°36' E 139°58'0 0.1
2016-Sep-10 10:32N 35°36' E 139°58'0 0.1
2016-Sep-10 09:32N 35°36' E 139°58'0 0.0
2016-Sep-10 08:29N 35°36' E 139°58'0 0.0
2016-Sep-10 07:29N 35°36' E 139°58'0 0.1
2016-Sep-10 06:32N 35°36' E 139°58'0 0.0
2016-Sep-10 04:32N 35°36' E 139°58'0 0.0
2016-Sep-10 03:26N 35°36' E 139°58'0 0.0
2016-Sep-10 02:29N 35°36' E 139°58'0 0.0
2016-Sep-10 01:26N 35°36' E 139°58'0 0.1
2016-Sep-10 00:29N 35°36' E 139°58'0 0.0
2016-Sep-09 23:29N 35°36' E 139°58'0 0.0
2016-Sep-09 22:32N 35°36' E 139°58'3 2.8
2016-Sep-09 21:33N 35°33' E 139°57'8 8.2
2016-Sep-09 20:33N 35°27' E 139°50'8 8.1
2016-Sep-09 19:33N 35°20' E 139°45'8 7.5
2016-Sep-09 18:33N 35°13' E 139°47'8 7.8
2016-Sep-09 17:33N 35°06' E 139°42'  
Track history (hours):
 
Tides and Currents Weather Stations Pressure Air Temp Water Temp Dewpoint Dewpoint Depression Visibility Wind Speed Wind Dir Waves Ship Positions

Chang Sheng

Last reported at 2016-Sep-19 09:31 UTC. Time now 2016-Oct-01 10:21 UTC.
Position N 34°38' E 134°60'.
Warning: this ship's position is 12 days out of date.

Length 86 m; draft 5.9 m.

Type: Cargo ship. MMSI: 312161000.

Date/timePositionNaut miles runAvg speedWind from/ knotsBaromVisibWave heightAir tempDewpointWater temp
2016-Sep-19 09:31N 34°38' E 134°60'11 5.6
2016-Sep-19 07:33N 34°27' E 135°03'8 7.7
2016-Sep-19 06:32N 34°19' E 135°00'234 6.5
2016-Sep-17 18:38N 34°51' E 139°42'46 7.3
2016-Sep-17 12:20N 35°15' E 140°30'16 9.1
2016-Sep-17 10:32N 35°28' E 140°42'10 9.4
2016-Sep-17 09:29N 35°35' E 140°50'16 7.7
2016-Sep-17 07:26N 35°51' E 140°49'9 3.8
2016-Sep-17 05:11N 35°56' E 140°40'0 0.0
2016-Sep-17 04:32N 35°56' E 140°40'0 0.0
2016-Sep-17 00:23N 35°55' E 140°40'0 0.0
2016-Sep-16 09:14N 35°55' E 140°40'0 0.0
2016-Sep-16 00:26N 35°55' E 140°40'0 0.0
2016-Sep-15 22:22N 35°56' E 140°40'0 0.0
2016-Sep-15 21:29N 35°55' E 140°40'0 0.0
2016-Sep-15 20:32N 35°55' E 140°40'0 0.0
2016-Sep-15 12:31N 35°55' E 140°40'0 0.0
2016-Sep-15 11:08N 35°55' E 140°40'0 0.0
2016-Sep-14 22:31N 35°55' E 140°40'0 0.0
2016-Sep-14 17:31N 35°56' E 140°40'0 0.0
2016-Sep-14 16:22N 35°56' E 140°40'0 0.0
2016-Sep-14 10:26N 35°55' E 140°40'0 0.0
2016-Sep-14 09:32N 35°55' E 140°40'0 0.0
2016-Sep-14 08:29N 35°55' E 140°40'8 0.8
2016-Sep-13 22:33N 35°56' E 140°50'1 0.7
2016-Sep-13 20:33N 35°55' E 140°52'14 7.1
2016-Sep-13 18:33N 35°41' E 140°55'9 6.9
2016-Sep-13 17:11N 35°34' E 140°48'4 7.1
2016-Sep-13 16:33N 35°30' E 140°45'44 8.8
2016-Sep-13 11:32N 34°58' E 140°08'18 9.2
2016-Sep-13 09:33N 34°52' E 139°47'19 9.6
2016-Sep-13 07:33N 35°11' E 139°46'1110.5
2016-Sep-13 06:33N 35°21' E 139°42'2010.0
2016-Sep-13 04:33N 35°36' E 139°59'4 2.1
2016-Sep-13 02:27N 35°41' E 139°59'0 0.0
2016-Sep-12 23:33N 35°41' E 139°59'0 0.0
2016-Sep-12 21:33N 35°41' E 139°59'0 0.0
2016-Sep-12 19:21N 35°41' E 139°59'0 0.0
2016-Sep-12 17:33N 35°41' E 139°59'0 0.0
2016-Sep-12 14:33N 35°41' E 139°59'0 0.0
2016-Sep-12 13:27N 35°41' E 139°59'0 0.0
2016-Sep-12 12:33N 35°41' E 139°59'0 0.0
2016-Sep-12 11:09N 35°41' E 139°59'0 0.0
2016-Sep-12 10:27N 35°41' E 139°59'0 0.0
2016-Sep-12 07:21N 35°41' E 139°59'0 0.0
2016-Sep-12 06:33N 35°41' E 139°59'0 0.0
2016-Sep-12 03:33N 35°41' E 139°59'0 0.0
2016-Sep-12 01:33N 35°41' E 139°59'0 0.0
2016-Sep-11 23:33N 35°41' E 139°59'0 0.0
2016-Sep-11 22:30N 35°41' E 139°59'2 2.2
2016-Sep-11 21:33N 35°38' E 139°59'3 2.7
2016-Sep-11 20:31N 35°36' E 139°58'0 0.0
2016-Sep-11 19:31N 35°36' E 139°58'0 0.0
2016-Sep-11 18:31N 35°36' E 139°58'0 0.0
2016-Sep-11 17:28N 35°36' E 139°58'0 0.0
2016-Sep-11 16:31N 35°36' E 139°58'0 0.0
2016-Sep-11 15:31N 35°36' E 139°58'0 0.0
2016-Sep-11 14:28N 35°36' E 139°58'0 0.0
2016-Sep-11 13:31N 35°36' E 139°58'0 0.0
2016-Sep-11 12:31N 35°36' E 139°58'0 0.0
2016-Sep-11 11:31N 35°36' E 139°58'0 0.0
2016-Sep-11 10:28N 35°36' E 139°58'0 0.0
2016-Sep-11 08:19N 35°36' E 139°58'0 0.1
2016-Sep-11 07:31N 35°36' E 139°58'0 0.0
2016-Sep-11 03:31N 35°36' E 139°58'0 0.1
2016-Sep-11 02:28N 35°36' E 139°58'0 0.0
2016-Sep-11 01:07N 35°36' E 139°58'0 0.0
2016-Sep-11 00:31N 35°36' E 139°58'0 0.0
2016-Sep-10 23:29N 35°36' E 139°58'0 0.0
2016-Sep-10 21:32N 35°36' E 139°58'0 0.0
2016-Sep-10 20:29N 35°36' E 139°58'0 0.0
2016-Sep-10 19:23N 35°36' E 139°58'0 0.0
2016-Sep-10 18:29N 35°36' E 139°58'0 0.0
2016-Sep-10 17:23N 35°36' E 139°58'0 0.0
2016-Sep-10 16:32N 35°36' E 139°58'0 0.0
2016-Sep-10 15:32N 35°36' E 139°58'0 0.0
2016-Sep-10 14:29N 35°36' E 139°58'0 0.0
2016-Sep-10 13:29N 35°36' E 139°58'0 0.0
2016-Sep-10 12:29N 35°36' E 139°58'0 0.0
2016-Sep-10 11:20N 35°36' E 139°58'0 0.1
2016-Sep-10 10:32N 35°36' E 139°58'0 0.1
2016-Sep-10 09:32N 35°36' E 139°58'0 0.0
2016-Sep-10 08:29N 35°36' E 139°58'0 0.0
2016-Sep-10 07:29N 35°36' E 139°58'0 0.1
2016-Sep-10 06:32N 35°36' E 139°58'0 0.0
2016-Sep-10 04:32N 35°36' E 139°58'0 0.0
2016-Sep-10 03:26N 35°36' E 139°58'0 0.0
2016-Sep-10 02:29N 35°36' E 139°58'0 0.0
2016-Sep-10 01:26N 35°36' E 139°58'0 0.1
2016-Sep-10 00:29N 35°36' E 139°58'0 0.0
2016-Sep-09 23:29N 35°36' E 139°58'0 0.0
2016-Sep-09 22:32N 35°36' E 139°58'3 2.8
2016-Sep-09 21:33N 35°33' E 139°57'8 8.2
2016-Sep-09 20:33N 35°27' E 139°50'8 8.1
2016-Sep-09 19:33N 35°20' E 139°45'8 7.5
2016-Sep-09 18:33N 35°13' E 139°47'8 7.8
2016-Sep-09 17:33N 35°06' E 139°42'  

Dump ship's entire track history